Hovedside
METAR-TAF:

METAR-TAF

Lufthavner :

Lossiemouth, Skottland

breddegrad: 57-43N, lengdegrad: 003-19W, høyde over havet: 13 m

Gjeldene værobservasjon

Denne rapporten ble laget for 26 minutter siden, klokken 13:50 UTC
Vind 15 kt fra Sør-sørvest
Temperatur 21°C
Luftfuktighet 56%
Trykk 1014 hPa
Sikt 10 km eller mer
Få skyer i en høyde av 3500 ft
Brutte skyer i en høyde av 4000 ft

METAR: EGQS 181350Z 21015KT 9999 FEW035 BKN040 21/12 Q1014 NOSIG RMK BLU BLU

Tid: 15:16 (14:16 UTC)

Varsel

Denne rapporten ble laget for 3 timer og 22 minutter siden, klokken 10:54 UTC
Varsel gyldig fra 18. klokken 12 UTC til 19. klokken 06 UTC
Vind 12 kt fra Sørvest
Sikt 10 km eller mer
Få skyer i en høyde av 3500 ft
Spredte skyer i en høyde av 4000 ft

TAF: EGQS 181054Z 1812/1906 22012KT 9999 FEW035 SCT040

Værobservasjoner og værvarsel for over 4000 flyplasser (METAR- og TAF-rapporter).

Tilgjengelige stasjoner er representert av de røde og gule prikkene på kartet.

Hold musepekeren over prikken for å se navnet på stasjonen.

Klikk så for å se værobservasjoner og -varsler.

For å forandre kartet kan du klikke på den grønne knappen med svart kryss for å zoome inn, på den grønne knappen med strek for å zoome ut, eller på de grønne pilene for å se tilstøtende kart.


METAR-TAF: